sensor_id;sensor_type;location;lat;lon;timestamp;P1;durP1;ratioP1;P2;durP2;ratioP2
53751;SDS011;41095;53.090;6.692;2022-12-18T00:01:35;58.42;;;35.78;;
53751;SDS011;41095;53.090;6.692;2022-12-18T00:04:03;60.72;;;36.13;;
53751;SDS011;41095;53.090;6.692;2022-12-18T00:06:30;67.45;;;37.65;;
53751;SDS011;41095;53.090;6.692;2022-12-18T00:08:58;70.10;;;38.28;;
53751;SDS011;41095;53.090;6.692;2022-12-18T00:11:25;65.28;;;35.20;;
53751;SDS011;41095;53.090;6.692;2022-12-18T00:13:53;70.05;;;38.15;;
53751;SDS011;41095;53.090;6.692;2022-12-18T00:16:20;63.17;;;36.55;;
53751;SDS011;41095;53.090;6.692;2022-12-18T00:18:48;70.00;;;36.80;;
53751;SDS011;41095;53.090;6.692;2022-12-18T00:21:14;59.22;;;32.17;;
53751;SDS011;41095;53.090;6.692;2022-12-18T00:23:41;55.83;;;31.77;;
53751;SDS011;41095;53.090;6.692;2022-12-18T00:26:14;64.90;;;37.15;;
53751;SDS011;41095;53.090;6.692;2022-12-18T00:28:42;62.92;;;36.38;;
53751;SDS011;41095;53.090;6.692;2022-12-18T00:31:10;54.40;;;33.45;;
53751;SDS011;41095;53.090;6.692;2022-12-18T00:33:37;63.53;;;34.05;;
53751;SDS011;41095;53.090;6.692;2022-12-18T00:36:04;59.50;;;34.75;;
53751;SDS011;41095;53.090;6.692;2022-12-18T00:38:32;76.00;;;37.65;;
53751;SDS011;41095;53.090;6.692;2022-12-18T00:40:58;68.82;;;37.92;;
53751;SDS011;41095;53.090;6.692;2022-12-18T00:43:24;59.25;;;35.17;;
53751;SDS011;41095;53.090;6.692;2022-12-18T00:45:50;59.53;;;34.15;;
53751;SDS011;41095;53.090;6.692;2022-12-18T00:48:15;63.97;;;34.50;;
53751;SDS011;41095;53.090;6.692;2022-12-18T00:50:41;60.90;;;33.83;;
53751;SDS011;41095;53.090;6.692;2022-12-18T00:53:07;56.58;;;33.00;;
53751;SDS011;41095;53.090;6.692;2022-12-18T00:55:32;62.55;;;35.80;;
53751;SDS011;41095;53.090;6.692;2022-12-18T00:57:58;55.92;;;34.20;;
53751;SDS011;41095;53.090;6.692;2022-12-18T01:00:24;56.45;;;33.67;;
53751;SDS011;41095;53.090;6.692;2022-12-18T01:02:50;59.13;;;34.78;;
53751;SDS011;41095;53.090;6.692;2022-12-18T01:05:16;56.70;;;35.25;;
53751;SDS011;41095;53.090;6.692;2022-12-18T01:07:41;56.15;;;33.40;;
53751;SDS011;41095;53.090;6.692;2022-12-18T01:10:08;58.63;;;35.28;;
53751;SDS011;41095;53.090;6.692;2022-12-18T01:12:36;57.35;;;31.77;;
53751;SDS011;41095;53.090;6.692;2022-12-18T01:15:02;64.85;;;33.20;;
53751;SDS011;41095;53.090;6.692;2022-12-18T01:17:29;59.38;;;35.10;;
53751;SDS011;41095;53.090;6.692;2022-12-18T01:19:55;60.13;;;36.00;;
53751;SDS011;41095;53.090;6.692;2022-12-18T01:22:21;60.78;;;35.80;;
53751;SDS011;41095;53.090;6.692;2022-12-18T01:24:46;60.42;;;34.65;;
53751;SDS011;41095;53.090;6.692;2022-12-18T01:27:12;65.38;;;37.00;;
53751;SDS011;41095;53.090;6.692;2022-12-18T01:29:38;54.75;;;32.45;;
53751;SDS011;41095;53.090;6.692;2022-12-18T01:32:04;57.70;;;34.58;;
53751;SDS011;41095;53.090;6.692;2022-12-18T01:34:29;62.70;;;34.70;;
53751;SDS011;41095;53.090;6.692;2022-12-18T01:36:55;61.25;;;34.33;;
53751;SDS011;41095;53.090;6.692;2022-12-18T01:39:21;56.70;;;32.08;;
53751;SDS011;41095;53.090;6.692;2022-12-18T01:41:47;52.42;;;31.17;;
53751;SDS011;41095;53.090;6.692;2022-12-18T01:50:14;59.20;;;32.85;;
53751;SDS011;41095;53.090;6.692;2022-12-18T01:55:31;61.30;;;34.30;;
53751;SDS011;41095;53.090;6.692;2022-12-18T01:58:01;52.97;;;31.85;;
53751;SDS011;41095;53.090;6.692;2022-12-18T02:00:27;62.15;;;35.03;;
53751;SDS011;41095;53.090;6.692;2022-12-18T02:02:54;66.47;;;35.85;;
53751;SDS011;41095;53.090;6.692;2022-12-18T02:05:29;65.97;;;38.53;;
53751;SDS011;41095;53.090;6.692;2022-12-18T02:11:17;60.47;;;33.35;;
53751;SDS011;41095;53.090;6.692;2022-12-18T02:13:52;65.20;;;36.45;;
53751;SDS011;41095;53.090;6.692;2022-12-18T02:16:44;49.90;;;31.05;;
53751;SDS011;41095;53.090;6.692;2022-12-18T02:24:59;67.68;;;38.47;;
53751;SDS011;41095;53.090;6.692;2022-12-18T02:27:26;61.70;;;36.17;;
53751;SDS011;41095;53.090;6.692;2022-12-18T02:29:54;66.00;;;37.65;;
53751;SDS011;41095;53.090;6.692;2022-12-18T02:32:25;59.35;;;36.00;;
53751;SDS011;41095;53.090;6.692;2022-12-18T02:34:54;69.80;;;36.30;;
53751;SDS011;41095;53.090;6.692;2022-12-18T02:37:22;72.22;;;40.75;;
53751;SDS011;41095;53.090;6.692;2022-12-18T02:39:51;73.43;;;39.17;;
53751;SDS011;41095;53.090;6.692;2022-12-18T02:42:20;59.40;;;37.08;;
53751;SDS011;41095;53.090;6.692;2022-12-18T02:44:48;69.82;;;42.15;;
53751;SDS011;41095;53.090;6.692;2022-12-18T02:47:16;68.38;;;39.70;;
53751;SDS011;41095;53.090;6.692;2022-12-18T02:49:47;62.92;;;37.20;;
53751;SDS011;41095;53.090;6.692;2022-12-18T02:57:58;66.20;;;36.67;;
53751;SDS011;41095;53.090;6.692;2022-12-18T03:00:55;62.25;;;38.47;;
53751;SDS011;41095;53.090;6.692;2022-12-18T03:03:29;65.63;;;38.05;;
53751;SDS011;41095;53.090;6.692;2022-12-18T03:06:05;58.33;;;37.95;;
53751;SDS011;41095;53.090;6.692;2022-12-18T03:08:37;64.47;;;37.38;;
53751;SDS011;41095;53.090;6.692;2022-12-18T03:11:09;63.58;;;36.75;;
53751;SDS011;41095;53.090;6.692;2022-12-18T03:13:38;65.57;;;37.42;;
53751;SDS011;41095;53.090;6.692;2022-12-18T03:16:14;68.97;;;38.65;;
53751;SDS011;41095;53.090;6.692;2022-12-18T03:18:49;65.03;;;36.03;;
53751;SDS011;41095;53.090;6.692;2022-12-18T03:21:42;54.97;;;33.60;;
53751;SDS011;41095;53.090;6.692;2022-12-18T03:24:10;57.78;;;35.53;;
53751;SDS011;41095;53.090;6.692;2022-12-18T03:26:37;57.88;;;33.88;;
53751;SDS011;41095;53.090;6.692;2022-12-18T03:29:10;58.42;;;31.10;;
53751;SDS011;41095;53.090;6.692;2022-12-18T03:31:42;57.88;;;35.38;;
53751;SDS011;41095;53.090;6.692;2022-12-18T03:34:17;65.50;;;35.03;;
53751;SDS011;41095;53.090;6.692;2022-12-18T03:36:48;65.25;;;35.85;;
53751;SDS011;41095;53.090;6.692;2022-12-18T03:39:14;68.68;;;37.03;;
53751;SDS011;41095;53.090;6.692;2022-12-18T03:41:57;61.70;;;32.25;;
53751;SDS011;41095;53.090;6.692;2022-12-18T03:44:40;55.28;;;34.70;;
53751;SDS011;41095;53.090;6.692;2022-12-18T03:49:56;54.28;;;32.33;;
53751;SDS011;41095;53.090;6.692;2022-12-18T03:55:19;59.95;;;32.58;;
53751;SDS011;41095;53.090;6.692;2022-12-18T03:57:47;63.65;;;33.75;;
53751;SDS011;41095;53.090;6.692;2022-12-18T04:00:15;64.03;;;33.22;;
53751;SDS011;41095;53.090;6.692;2022-12-18T04:02:44;57.30;;;32.95;;
53751;SDS011;41095;53.090;6.692;2022-12-18T04:05:13;62.33;;;34.60;;
53751;SDS011;41095;53.090;6.692;2022-12-18T04:07:40;63.22;;;36.30;;
53751;SDS011;41095;53.090;6.692;2022-12-18T04:10:07;60.80;;;34.22;;
53751;SDS011;41095;53.090;6.692;2022-12-18T04:12:37;58.58;;;32.55;;
53751;SDS011;41095;53.090;6.692;2022-12-18T04:15:03;61.70;;;32.78;;
53751;SDS011;41095;53.090;6.692;2022-12-18T04:17:29;57.80;;;31.75;;
53751;SDS011;41095;53.090;6.692;2022-12-18T04:19:55;52.63;;;30.27;;
53751;SDS011;41095;53.090;6.692;2022-12-18T04:22:21;53.85;;;31.30;;
53751;SDS011;41095;53.090;6.692;2022-12-18T04:24:46;49.85;;;30.58;;
53751;SDS011;41095;53.090;6.692;2022-12-18T04:27:12;59.25;;;32.85;;
53751;SDS011;41095;53.090;6.692;2022-12-18T04:29:38;55.92;;;31.40;;
53751;SDS011;41095;53.090;6.692;2022-12-18T04:32:04;56.70;;;31.10;;
53751;SDS011;41095;53.090;6.692;2022-12-18T04:34:30;48.15;;;31.50;;
53751;SDS011;41095;53.090;6.692;2022-12-18T04:36:55;47.13;;;28.02;;
53751;SDS011;41095;53.090;6.692;2022-12-18T04:39:21;51.13;;;30.48;;
53751;SDS011;41095;53.090;6.692;2022-12-18T04:41:47;52.17;;;29.00;;
53751;SDS011;41095;53.090;6.692;2022-12-18T04:44:13;45.63;;;28.20;;
53751;SDS011;41095;53.090;6.692;2022-12-18T04:46:38;47.97;;;27.35;;
53751;SDS011;41095;53.090;6.692;2022-12-18T04:49:04;49.20;;;29.90;;
53751;SDS011;41095;53.090;6.692;2022-12-18T04:51:30;45.13;;;26.52;;
53751;SDS011;41095;53.090;6.692;2022-12-18T04:53:55;47.50;;;28.23;;
53751;SDS011;41095;53.090;6.692;2022-12-18T04:56:21;48.72;;;27.80;;
53751;SDS011;41095;53.090;6.692;2022-12-18T04:58:47;47.67;;;28.90;;
53751;SDS011;41095;53.090;6.692;2022-12-18T05:01:13;55.22;;;29.85;;
53751;SDS011;41095;53.090;6.692;2022-12-18T05:03:40;42.63;;;26.27;;
53751;SDS011;41095;53.090;6.692;2022-12-18T05:06:07;44.70;;;25.85;;
53751;SDS011;41095;53.090;6.692;2022-12-18T05:08:33;41.47;;;27.17;;
53751;SDS011;41095;53.090;6.692;2022-12-18T05:11:03;40.95;;;25.23;;
53751;SDS011;41095;53.090;6.692;2022-12-18T05:13:34;40.47;;;25.88;;
53751;SDS011;41095;53.090;6.692;2022-12-18T05:16:00;45.35;;;27.15;;
53751;SDS011;41095;53.090;6.692;2022-12-18T05:18:26;38.35;;;25.67;;
53751;SDS011;41095;53.090;6.692;2022-12-18T05:20:52;38.05;;;23.88;;
53751;SDS011;41095;53.090;6.692;2022-12-18T05:23:19;39.15;;;23.80;;
53751;SDS011;41095;53.090;6.692;2022-12-18T05:25:47;36.53;;;24.80;;
53751;SDS011;41095;53.090;6.692;2022-12-18T05:28:17;38.50;;;24.25;;
53751;SDS011;41095;53.090;6.692;2022-12-18T05:30:46;34.80;;;22.38;;
53751;SDS011;41095;53.090;6.692;2022-12-18T05:33:15;36.70;;;22.98;;
53751;SDS011;41095;53.090;6.692;2022-12-18T05:35:42;36.67;;;22.48;;
53751;SDS011;41095;53.090;6.692;2022-12-18T05:38:08;37.25;;;21.58;;
53751;SDS011;41095;53.090;6.692;2022-12-18T05:40:33;41.33;;;24.00;;
53751;SDS011;41095;53.090;6.692;2022-12-18T05:42:59;36.72;;;21.98;;
53751;SDS011;41095;53.090;6.692;2022-12-18T05:45:25;34.60;;;22.15;;
53751;SDS011;41095;53.090;6.692;2022-12-18T05:47:50;31.48;;;20.85;;
53751;SDS011;41095;53.090;6.692;2022-12-18T05:50:16;38.17;;;21.17;;
53751;SDS011;41095;53.090;6.692;2022-12-18T05:52:42;36.28;;;22.23;;
53751;SDS011;41095;53.090;6.692;2022-12-18T05:55:08;37.80;;;19.95;;
53751;SDS011;41095;53.090;6.692;2022-12-18T05:57:33;31.83;;;21.52;;
53751;SDS011;41095;53.090;6.692;2022-12-18T05:59:59;32.47;;;18.38;;
53751;SDS011;41095;53.090;6.692;2022-12-18T06:02:25;29.98;;;19.70;;
53751;SDS011;41095;53.090;6.692;2022-12-18T06:04:50;33.00;;;19.92;;
53751;SDS011;41095;53.090;6.692;2022-12-18T06:07:16;30.50;;;19.98;;
53751;SDS011;41095;53.090;6.692;2022-12-18T06:09:42;32.15;;;20.23;;
53751;SDS011;41095;53.090;6.692;2022-12-18T06:12:08;31.77;;;20.25;;
53751;SDS011;41095;53.090;6.692;2022-12-18T06:14:34;31.33;;;19.90;;
53751;SDS011;41095;53.090;6.692;2022-12-18T06:16:59;31.30;;;19.40;;
53751;SDS011;41095;53.090;6.692;2022-12-18T06:19:25;30.67;;;18.67;;
53751;SDS011;41095;53.090;6.692;2022-12-18T06:21:51;28.40;;;18.30;;
53751;SDS011;41095;53.090;6.692;2022-12-18T06:24:16;36.40;;;19.98;;
53751;SDS011;41095;53.090;6.692;2022-12-18T06:26:42;29.63;;;19.05;;
53751;SDS011;41095;53.090;6.692;2022-12-18T06:29:08;29.75;;;18.50;;
53751;SDS011;41095;53.090;6.692;2022-12-18T06:31:33;28.77;;;17.88;;
53751;SDS011;41095;53.090;6.692;2022-12-18T06:34:01;26.02;;;15.98;;
53751;SDS011;41095;53.090;6.692;2022-12-18T06:36:28;37.35;;;20.63;;
53751;SDS011;41095;53.090;6.692;2022-12-18T06:38:53;29.55;;;19.27;;
53751;SDS011;41095;53.090;6.692;2022-12-18T06:41:20;28.48;;;17.80;;
53751;SDS011;41095;53.090;6.692;2022-12-18T06:43:46;36.17;;;19.30;;
53751;SDS011;41095;53.090;6.692;2022-12-18T06:46:12;26.25;;;19.13;;
53751;SDS011;41095;53.090;6.692;2022-12-18T06:48:38;31.33;;;18.85;;
53751;SDS011;41095;53.090;6.692;2022-12-18T06:51:04;28.38;;;18.42;;
53751;SDS011;41095;53.090;6.692;2022-12-18T06:53:31;26.50;;;19.33;;
53751;SDS011;41095;53.090;6.692;2022-12-18T06:56:04;31.13;;;19.10;;
53751;SDS011;41095;53.090;6.692;2022-12-18T06:58:31;29.48;;;19.55;;
53751;SDS011;41095;53.090;6.692;2022-12-18T07:01:00;25.75;;;16.98;;
53751;SDS011;41095;53.090;6.692;2022-12-18T07:03:27;25.98;;;18.80;;
53751;SDS011;41095;53.090;6.692;2022-12-18T07:05:53;31.80;;;20.15;;
53751;SDS011;41095;53.090;6.692;2022-12-18T07:08:19;31.45;;;19.90;;
53751;SDS011;41095;53.090;6.692;2022-12-18T07:10:44;29.33;;;18.80;;
53751;SDS011;41095;53.090;6.692;2022-12-18T07:13:10;35.50;;;23.02;;
53751;SDS011;41095;53.090;6.692;2022-12-18T07:15:36;30.45;;;18.33;;
53751;SDS011;41095;53.090;6.692;2022-12-18T07:18:01;35.47;;;19.13;;
53751;SDS011;41095;53.090;6.692;2022-12-18T07:20:27;31.67;;;20.48;;
